EW8564 Weather Reports


Display with metric or nautical units.
time (UTC)temp
F
wind
direction
speed
MPH
gust
MPH
rain 1hr
in
rain 24hr
in
rain mn
in
humidity
%
barometer
mb
20191022214026 55 213 11.0 34.0 0.00 0.20 0.18 53 1013.5
20191022213025 55 222 14.0 34.0 0.00 0.20 0.18 55 1013.9
20191022212024 55 222 12.0 34.0 0.00 0.20 0.18 57 1014.2
20191022211024 55 219 17.0 34.0 0.00 0.20 0.18 56 1014.6
20191022210023 55 208 12.0 30.0 0.00 0.20 0.18 56 1014.2
20191022205022 55 213 16.0 30.0 0.00 0.20 0.18 56 1014.6
20191022204020 55 225 11.0 25.0 0.00 0.20 0.18 57 1014.6
20191022203019 54 210 9.0 23.0 0.00 0.21 0.18 60 1014.9
20191022202018 55 174 8.0 31.0 0.00 0.21 0.18 59 1015.2
20191022201017 55 211 8.0 31.0 0.00 0.21 0.18 57 1015.2
20191022200016 56 186 12.0 26.0 0.00 0.21 0.18 57 1014.9
20191022195015 55 208 11.0 26.0 0.00 0.21 0.18 60 1014.9
20191022194015 55 226 7.0 25.0 0.00 0.21 0.18 61 1015.2
20191022193013 55 226 11.0 26.0 0.00 0.21 0.18 63 1015.6
20191022192013 54 223 12.0 26.0 0.00 0.21 0.18 65 1015.9
20191022191012 54 226 9.0 22.0 0.00 0.21 0.18 66 1015.9
20191022190011 54 215 11.0 22.0 0.00 0.21 0.18 68 1015.9
20191022185010 53 227 3.0 21.0 0.00 0.21 0.18 69 1016.3
20191022184009 53 223 8.0 21.0 0.00 0.21 0.18 76 1016.3
20191022183008 50 208 5.0 9.0 0.00 0.21 0.18 87 1016.3
20191022182007 47 240 1.0 8.0 0.00 0.22 0.18 93 1016.3
20191022181007 45 13 0.0 0.0 0.00 0.23 0.18 93 1016.9
20191022180007 44 359 0.0 0.0 0.00 0.24 0.18 93 1016.9
20191022175005 44 359 0.0 0.0 0.00 0.25 0.18 93 1017.3
20191022174005 43 323 0.0 0.0 0.00 0.26 0.18 94 1017.6
20191022173005 43 105 0.0 3.0 0.00 0.27 0.18 94 1017.9
20191022172003 42 105 0.0 3.0 0.00 0.27 0.18 94 1017.9
20191022171003 42 106 0.0 4.0 0.00 0.28 0.18 94 1017.9
20191022170002 42 107 0.0 4.0 0.00 0.29 0.18 94 1017.9
20191022165001 42 20 0.0 5.0 0.00 0.29 0.18 94 1017.6
20191022163959 41 49 1.0 5.0 0.00 0.30 0.18 94 1017.9
20191022162959 41 20 0.0 4.0 0.00 0.31 0.18 94 1017.9
20191022161958 42 52 1.0 4.0 0.00 0.32 0.18 94 1017.6
20191022160957 41 20 0.0 0.0 0.00 0.32 0.18 94 1017.9
20191022155956 41 88 0.0 0.0 0.00 0.33 0.18 94 1018.3
20191022154955 41 13 0.0 0.0 0.00 0.33 0.18 94 1018.3
20191022153954 40 13 0.0 0.0 0.00 0.34 0.18 93 1018.3
20191022152953 40 13 0.0 0.0 0.00 0.35 0.18 93 1018.3
20191022151953 40 13 0.0 0.0 0.01 0.35 0.18 93 1018.3
20191022150952 40 51 0.0 0.0 0.01 0.35 0.18 94 1018.3
20191022145951 40 51 0.0 0.0 0.02 0.36 0.18 93 1018.3
20191022144950 40 50 0.0 0.0 0.02 0.36 0.18 93 1018.6
20191022143950 39 50 0.0 0.0 0.03 0.37 0.18 93 1018.3
20191022142949 39 50 0.0 0.0 0.03 0.37 0.18 93 1018.3
20191022141948 39 50 0.0 0.0 0.03 0.36 0.17 93 1018.3
20191022093935 37 39 0.0 0.0 0.03 0.22 0.03 92 1021.3
20191022092935 37 39 0.0 0.0 0.01 0.20 0.01 92 1021.3
20191022091934 37 39 0.0 0.0 0.01 0.20 0.01 92 1021.0
20191022090933 37 39 0.0 0.0 0.01 0.20 0.01 92 1021.0
20191022085932 37 39 0.0 0.0 0.00 0.19 0.00 92 1021.0
20191022084931 37 39 0.0 0.0 0.00 0.19 0.00 92 1021.0
20191022083930 37 39 0.0 0.0 0.00 0.19 0.00 92 1021.0
20191022082929 37 39 0.0 0.0 0.00 0.19 0.00 92 1021.0
20191022081929 37 39 0.0 0.0 0.00 0.19 0.00 92 1021.0
20191022080928 37 40 0.0 0.0 0.00 0.19 0.00 92 1021.0
20191022075926 37 40 0.0 0.0 0.00 0.19 0.00 92 1021.3
20191022074926 37 40 0.0 0.0 0.00 0.20 0.00 92 1021.3
20191022073924 37 40 0.0 3.0 0.00 0.20 0.00 92 1021.3
20191022072923 37 40 0.0 3.0 0.00 0.20 0.00 92 1021.3
20191022071922 37 40 0.0 1.0 0.00 0.20 0.00 92 1021.3
20191022070922 37 40 0.0 1.0 0.00 0.20 0.00 92 1021.3
20191022065921 37 40 0.0 3.0 0.00 0.21 0.00 92 1021.7
20191022064920 37 41 1.0 3.0 0.00 0.21 0.00 91 1021.7
20191022063919 38 43 0.0 4.0 0.00 0.21 0.00 91 1021.7
20191022062919 38 43 0.0 4.0 0.00 0.22 0.00 91 1021.7
20191022061917 38 43 0.0 4.0 0.00 0.22 0.00 91 1022.0
20191022060917 38 63 0.0 0.0 0.00 0.22 0.00 91 1022.0
20191022055915 38 63 0.0 0.0 0.00 0.22 0.22 91 1022.0
20191022054915 38 63 0.0 0.0 0.00 0.22 0.22 91 1022.0
20191022053914 38 63 0.0 0.0 0.00 0.22 0.22 91 1022.0
20191022052913 38 63 0.0 0.0 0.00 0.22 0.22 91 1022.0
20191022051912 38 63 0.0 1.0 0.00 0.22 0.22 91 1022.0
20191022050912 38 63 0.0 4.0 0.00 0.22 0.22 90 1022.4
20191022045911 38 54 2.0 4.0 0.01 0.22 0.22 90 1022.0
20191022044910 39 25 0.0 0.0 0.01 0.22 0.22 90 1022.0
20191022043909 39 25 0.0 0.0 0.01 0.22 0.22 90 1022.4
20191022042908 39 25 0.0 0.0 0.02 0.22 0.22 90 1022.4
20191022041907 39 25 0.0 0.0 0.02 0.22 0.22 90 1022.4
20191022040906 39 25 0.0 0.0 0.02 0.22 0.22 90 1022.4
20191022035906 39 26 0.0 0.0 0.01 0.21 0.21 90 1022.4
20191022032754 39 23 1.0 4.0 0.00 0.20 0.20 89 1022.0
20191022031753 39 16 1.0 4.0 0.00 0.20 0.20 88 1022.0
20191022030753 40 41 0.0 3.0 0.00 0.20 0.20 89 1021.7
20191022025752 40 41 1.0 5.0 0.00 0.20 0.20 89 1021.7
20191022024751 40 58 2.0 5.0 0.00 0.20 0.20 88 1021.7
20191022023750 40 59 0.0 3.0 0.00 0.20 0.20 88 1021.7
20191022022749 40 59 0.0 4.0 0.00 0.20 0.20 88 1021.7
20191022021748 41 61 2.0 4.0 0.00 0.20 0.20 88 1021.7
20191022020748 41 1 0.0 3.0 0.00 0.20 0.20 88 1021.7
20191022015747 41 1 0.0 1.0 0.00 0.20 0.20 87 1021.7
20191022014746 41 1 0.0 1.0 0.00 0.20 0.20 87 1021.7
20191022013745 41 1 0.0 1.0 0.00 0.20 0.20 86 1021.7
20191022012745 41 1 0.0 3.0 0.00 0.20 0.20 85 1021.7
20191022011744 42 1 0.0 4.0 0.00 0.20 0.20 85 1021.3
20191022010743 42 1 0.0 4.0 0.00 0.20 0.20 84 1021.3
20191022005742 43 1 0.0 0.0 0.00 0.20 0.20 84 1021.7
20191022004741 43 1 0.0 0.0 0.00 0.20 0.20 83 1021.7
20191022003740 43 1 0.0 0.0 0.00 0.20 0.20 83 1021.7
20191022002739 44 1 0.0 4.0 0.00 0.20 0.20 82 1021.7
20191022001738 44 1 0.0 4.0 0.00 0.20 0.20 81 1021.7
20191022000737 44 281 0.0 4.0 0.00 0.20 0.20 80 1021.7
20191021235737 44 281 0.0 4.0 0.00 0.20 0.20 79 1021.7
20191021234736 44 208 1.0 4.0 0.00 0.20 0.20 77 1021.7
20191021233735 45 120 0.0 4.0 0.00 0.20 0.20 79 1021.7
20191021232735 44 158 1.0 4.0 0.00 0.20 0.20 79 1021.7
20191021231734 45 345 0.0 5.0 0.00 0.20 0.20 79 1021.7
20191021230733 45 282 0.0 5.0 0.00 0.20 0.20 79 1021.7
20191021225732 45 251 0.0 5.0 0.00 0.20 0.20 79 1021.7
20191021224731 45 287 1.0 5.0 0.00 0.20 0.20 79 1021.3
20191021223731 45 335 0.0 3.0 0.00 0.20 0.20 78 1021.3
20191021222730 45 24 0.0 9.0 0.00 0.20 0.20 77 1021.3
20191021221729 45 306 0.0 10.0 0.00 0.20 0.20 77 1021.0
20191021220728 45 262 1.0 10.0 0.00 0.20 0.20 76 1021.0
20191021215727 46 317 2.0 12.0 0.00 0.20 0.20 74 1021.0
20191021214726 46 217 5.0 12.0 0.00 0.20 0.20 71 1020.7